sensor_id;sensor_type;location;lat;lon;timestamp;P1;durP1;ratioP1;P2;durP2;ratioP2
14102;SDS011;7129;48.832;12.472;2022-09-06T00:02:29;9.25;;;8.55;;
14102;SDS011;7129;48.832;12.472;2022-09-06T00:07:35;9.60;;;8.80;;
14102;SDS011;7129;48.832;12.472;2022-09-06T00:12:38;8.93;;;8.23;;
14102;SDS011;7129;48.832;12.472;2022-09-06T00:17:42;9.30;;;8.60;;
14102;SDS011;7129;48.832;12.472;2022-09-06T00:22:44;8.93;;;8.25;;
14102;SDS011;7129;48.832;12.472;2022-09-06T00:27:47;8.18;;;7.57;;
14102;SDS011;7129;48.832;12.472;2022-09-06T00:32:56;9.25;;;8.45;;
14102;SDS011;7129;48.832;12.472;2022-09-06T00:37:58;8.00;;;7.43;;
14102;SDS011;7129;48.832;12.472;2022-09-06T00:43:03;9.30;;;8.27;;
14102;SDS011;7129;48.832;12.472;2022-09-06T00:48:09;8.77;;;7.97;;
14102;SDS011;7129;48.832;12.472;2022-09-06T00:53:24;9.00;;;8.30;;
14102;SDS011;7129;48.832;12.472;2022-09-06T00:58:28;8.95;;;8.15;;
14102;SDS011;7129;48.832;12.472;2022-09-06T01:03:30;10.07;;;9.07;;
14102;SDS011;7129;48.832;12.472;2022-09-06T01:08:41;8.93;;;8.23;;
14102;SDS011;7129;48.832;12.472;2022-09-06T01:14:33;9.02;;;8.27;;
14102;SDS011;7129;48.832;12.472;2022-09-06T01:25:32;9.23;;;8.30;;
14102;SDS011;7129;48.832;12.472;2022-09-06T01:30:41;9.57;;;8.88;;
14102;SDS011;7129;48.832;12.472;2022-09-06T01:35:49;9.20;;;8.40;;
14102;SDS011;7129;48.832;12.472;2022-09-06T01:40:55;9.18;;;8.30;;
14102;SDS011;7129;48.832;12.472;2022-09-06T01:46:01;9.90;;;9.10;;
14102;SDS011;7129;48.832;12.472;2022-09-06T01:51:11;9.52;;;8.63;;
14102;SDS011;7129;48.832;12.472;2022-09-06T01:56:24;10.20;;;8.60;;
14102;SDS011;7129;48.832;12.472;2022-09-06T02:01:39;9.50;;;8.75;;
14102;SDS011;7129;48.832;12.472;2022-09-06T02:06:46;9.95;;;9.05;;
14102;SDS011;7129;48.832;12.472;2022-09-06T02:11:53;9.40;;;8.60;;
14102;SDS011;7129;48.832;12.472;2022-09-06T02:17:01;9.90;;;9.07;;
14102;SDS011;7129;48.832;12.472;2022-09-06T02:22:06;10.20;;;9.20;;
14102;SDS011;7129;48.832;12.472;2022-09-06T02:27:22;10.32;;;9.52;;
14102;SDS011;7129;48.832;12.472;2022-09-06T02:32:26;10.07;;;9.27;;
14102;SDS011;7129;48.832;12.472;2022-09-06T02:37:31;10.20;;;9.32;;
14102;SDS011;7129;48.832;12.472;2022-09-06T02:42:33;10.35;;;9.35;;
14102;SDS011;7129;48.832;12.472;2022-09-06T02:47:36;9.98;;;9.10;;
14102;SDS011;7129;48.832;12.472;2022-09-06T02:52:38;9.52;;;8.73;;
14102;SDS011;7129;48.832;12.472;2022-09-06T02:57:40;10.23;;;9.25;;
14102;SDS011;7129;48.832;12.472;2022-09-06T03:02:44;9.93;;;9.13;;
14102;SDS011;7129;48.832;12.472;2022-09-06T03:07:45;9.27;;;8.27;;
14102;SDS011;7129;48.832;12.472;2022-09-06T03:12:47;9.90;;;9.07;;
14102;SDS011;7129;48.832;12.472;2022-09-06T03:17:50;10.48;;;9.48;;
14102;SDS011;7129;48.832;12.472;2022-09-06T03:22:56;11.35;;;10.45;;
14102;SDS011;7129;48.832;12.472;2022-09-06T03:27:58;11.00;;;10.00;;
14102;SDS011;7129;48.832;12.472;2022-09-06T03:33:01;12.40;;;11.20;;
14102;SDS011;7129;48.832;12.472;2022-09-06T03:38:03;12.63;;;11.15;;
14102;SDS011;7129;48.832;12.472;2022-09-06T03:43:05;11.20;;;10.20;;
14102;SDS011;7129;48.832;12.472;2022-09-06T03:48:09;11.23;;;10.05;;
14102;SDS011;7129;48.832;12.472;2022-09-06T03:53:11;12.68;;;11.23;;
14102;SDS011;7129;48.832;12.472;2022-09-06T03:58:18;12.35;;;11.25;;
14102;SDS011;7129;48.832;12.472;2022-09-06T04:03:22;12.52;;;11.50;;
14102;SDS011;7129;48.832;12.472;2022-09-06T04:08:34;12.18;;;11.07;;
14102;SDS011;7129;48.832;12.472;2022-09-06T04:13:37;13.27;;;12.18;;
14102;SDS011;7129;48.832;12.472;2022-09-06T04:18:40;12.27;;;11.27;;
14102;SDS011;7129;48.832;12.472;2022-09-06T04:23:42;13.07;;;11.98;;
14102;SDS011;7129;48.832;12.472;2022-09-06T04:28:44;12.02;;;11.02;;
14102;SDS011;7129;48.832;12.472;2022-09-06T04:33:47;12.32;;;11.13;;
14102;SDS011;7129;48.832;12.472;2022-09-06T04:38:59;13.32;;;12.13;;
14102;SDS011;7129;48.832;12.472;2022-09-06T04:44:01;12.15;;;11.05;;
14102;SDS011;7129;48.832;12.472;2022-09-06T04:49:05;11.90;;;10.70;;
14102;SDS011;7129;48.832;12.472;2022-09-06T04:54:07;13.32;;;11.30;;
14102;SDS011;7129;48.832;12.472;2022-09-06T04:59:08;12.38;;;11.13;;
14102;SDS011;7129;48.832;12.472;2022-09-06T05:04:12;14.02;;;12.75;;
14102;SDS011;7129;48.832;12.472;2022-09-06T05:09:13;14.60;;;13.40;;
14102;SDS011;7129;48.832;12.472;2022-09-06T05:14:16;13.60;;;12.40;;
14102;SDS011;7129;48.832;12.472;2022-09-06T05:19:19;12.45;;;11.35;;
14102;SDS011;7129;48.832;12.472;2022-09-06T05:24:21;15.40;;;14.05;;
14102;SDS011;7129;48.832;12.472;2022-09-06T05:29:23;15.05;;;13.82;;
14102;SDS011;7129;48.832;12.472;2022-09-06T05:34:36;14.15;;;12.85;;
14102;SDS011;7129;48.832;12.472;2022-09-06T05:39:38;13.85;;;12.55;;
14102;SDS011;7129;48.832;12.472;2022-09-06T05:44:53;15.77;;;14.35;;
14102;SDS011;7129;48.832;12.472;2022-09-06T05:49:57;17.60;;;15.77;;
14102;SDS011;7129;48.832;12.472;2022-09-06T05:54:59;17.77;;;16.15;;
14102;SDS011;7129;48.832;12.472;2022-09-06T06:00:01;16.67;;;15.15;;
14102;SDS011;7129;48.832;12.472;2022-09-06T06:05:05;14.02;;;12.88;;
14102;SDS011;7129;48.832;12.472;2022-09-06T06:10:08;12.18;;;11.13;;
14102;SDS011;7129;48.832;12.472;2022-09-06T06:15:10;10.57;;;9.77;;
14102;SDS011;7129;48.832;12.472;2022-09-06T06:20:14;8.25;;;7.75;;
14102;SDS011;7129;48.832;12.472;2022-09-06T06:25:16;9.18;;;8.50;;
14102;SDS011;7129;48.832;12.472;2022-09-06T06:30:22;9.15;;;8.45;;
14102;SDS011;7129;48.832;12.472;2022-09-06T06:35:25;9.57;;;8.68;;
14102;SDS011;7129;48.832;12.472;2022-09-06T06:40:27;8.50;;;7.78;;
14102;SDS011;7129;48.832;12.472;2022-09-06T06:45:29;8.73;;;8.02;;
14102;SDS011;7129;48.832;12.472;2022-09-06T06:50:33;9.25;;;8.50;;
14102;SDS011;7129;48.832;12.472;2022-09-06T06:55:35;8.82;;;8.23;;
14102;SDS011;7129;48.832;12.472;2022-09-06T07:00:36;9.00;;;8.40;;
14102;SDS011;7129;48.832;12.472;2022-09-06T07:05:41;8.05;;;7.32;;
14102;SDS011;7129;48.832;12.472;2022-09-06T07:10:47;7.82;;;7.07;;
14102;SDS011;7129;48.832;12.472;2022-09-06T07:15:50;8.30;;;7.60;;
14102;SDS011;7129;48.832;12.472;2022-09-06T07:27:17;7.75;;;7.07;;
14102;SDS011;7129;48.832;12.472;2022-09-06T07:32:19;6.45;;;5.85;;
14102;SDS011;7129;48.832;12.472;2022-09-06T07:37:23;7.10;;;6.40;;
14102;SDS011;7129;48.832;12.472;2022-09-06T07:42:29;16.60;;;6.95;;
14102;SDS011;7129;48.832;12.472;2022-09-06T07:47:52;7.50;;;6.90;;
14102;SDS011;7129;48.832;12.472;2022-09-06T07:53:14;7.38;;;6.68;;
14102;SDS011;7129;48.832;12.472;2022-09-06T07:58:29;6.82;;;5.90;;
14102;SDS011;7129;48.832;12.472;2022-09-06T08:03:44;7.60;;;7.00;;
14102;SDS011;7129;48.832;12.472;2022-09-06T08:09:05;7.35;;;6.75;;
14102;SDS011;7129;48.832;12.472;2022-09-06T08:14:08;7.57;;;6.88;;
14102;SDS011;7129;48.832;12.472;2022-09-06T08:30:32;8.73;;;7.82;;
14102;SDS011;7129;48.832;12.472;2022-09-06T08:35:34;7.75;;;7.00;;
14102;SDS011;7129;48.832;12.472;2022-09-06T08:40:53;7.68;;;7.00;;
14102;SDS011;7129;48.832;12.472;2022-09-06T09:06:49;5.85;;;5.35;;
14102;SDS011;7129;48.832;12.472;2022-09-06T09:11:59;6.32;;;5.70;;
14102;SDS011;7129;48.832;12.472;2022-09-06T09:17:08;6.70;;;5.20;;
14102;SDS011;7129;48.832;12.472;2022-09-06T09:22:20;5.88;;;5.38;;
14102;SDS011;7129;48.832;12.472;2022-09-06T09:27:24;5.65;;;5.25;;
14102;SDS011;7129;48.832;12.472;2022-09-06T09:32:29;5.55;;;5.15;;
14102;SDS011;7129;48.832;12.472;2022-09-06T09:37:36;5.85;;;5.25;;
14102;SDS011;7129;48.832;12.472;2022-09-06T09:42:38;5.80;;;5.30;;
14102;SDS011;7129;48.832;12.472;2022-09-06T09:47:40;5.40;;;5.00;;
14102;SDS011;7129;48.832;12.472;2022-09-06T09:52:51;5.68;;;5.28;;
14102;SDS011;7129;48.832;12.472;2022-09-06T09:57:53;6.03;;;5.45;;
14102;SDS011;7129;48.832;12.472;2022-09-06T10:02:55;6.15;;;5.57;;
14102;SDS011;7129;48.832;12.472;2022-09-06T10:08:00;5.47;;;5.07;;
14102;SDS011;7129;48.832;12.472;2022-09-06T10:13:20;5.38;;;4.88;;
14102;SDS011;7129;48.832;12.472;2022-09-06T10:18:28;4.15;;;3.75;;
14102;SDS011;7129;48.832;12.472;2022-09-06T10:23:38;4.63;;;3.90;;
14102;SDS011;7129;48.832;12.472;2022-09-06T10:28:52;4.43;;;4.13;;
14102;SDS011;7129;48.832;12.472;2022-09-06T10:34:14;4.80;;;4.30;;
14102;SDS011;7129;48.832;12.472;2022-09-06T10:39:37;5.20;;;4.43;;
14102;SDS011;7129;48.832;12.472;2022-09-06T10:44:53;4.43;;;4.10;;
14102;SDS011;7129;48.832;12.472;2022-09-06T10:50:09;5.40;;;4.10;;
14102;SDS011;7129;48.832;12.472;2022-09-06T10:55:14;4.55;;;4.13;;
14102;SDS011;7129;48.832;12.472;2022-09-06T11:00:27;4.25;;;3.85;;
14102;SDS011;7129;48.832;12.472;2022-09-06T11:05:30;4.03;;;3.65;;
14102;SDS011;7129;48.832;12.472;2022-09-06T11:10:37;5.78;;;3.83;;
14102;SDS011;7129;48.832;12.472;2022-09-06T11:15:44;5.22;;;4.03;;
14102;SDS011;7129;48.832;12.472;2022-09-06T11:20:51;5.90;;;3.65;;
14102;SDS011;7129;48.832;12.472;2022-09-06T11:26:24;4.15;;;3.50;;
14102;SDS011;7129;48.832;12.472;2022-09-06T11:37:22;3.92;;;3.55;;
14102;SDS011;7129;48.832;12.472;2022-09-06T11:43:06;4.15;;;3.05;;
14102;SDS011;7129;48.832;12.472;2022-09-06T11:59:10;4.93;;;3.10;;
14102;SDS011;7129;48.832;12.472;2022-09-06T12:26:02;3.05;;;2.85;;
14102;SDS011;7129;48.832;12.472;2022-09-06T12:37:06;4.10;;;3.80;;
14102;SDS011;7129;48.832;12.472;2022-09-06T12:47:38;5.03;;;4.63;;
14102;SDS011;7129;48.832;12.472;2022-09-06T12:52:47;9.77;;;8.73;;
14102;SDS011;7129;48.832;12.472;2022-09-06T12:57:56;17.15;;;15.65;;
14102;SDS011;7129;48.832;12.472;2022-09-06T13:03:03;6.03;;;5.53;;
14102;SDS011;7129;48.832;12.472;2022-09-06T13:08:48;8.88;;;5.93;;
14102;SDS011;7129;48.832;12.472;2022-09-06T13:14:17;7.75;;;6.80;;
14102;SDS011;7129;48.832;12.472;2022-09-06T13:19:28;18.25;;;16.65;;
14102;SDS011;7129;48.832;12.472;2022-09-06T13:24:43;4.13;;;3.83;;
14102;SDS011;7129;48.832;12.472;2022-09-06T13:35:30;14.82;;;13.40;;
14102;SDS011;7129;48.832;12.472;2022-09-06T13:46:45;7.72;;;6.97;;
14102;SDS011;7129;48.832;12.472;2022-09-06T13:51:47;6.13;;;5.63;;
14102;SDS011;7129;48.832;12.472;2022-09-06T13:56:51;7.72;;;7.00;;
14102;SDS011;7129;48.832;12.472;2022-09-06T14:07:31;5.20;;;4.70;;
14102;SDS011;7129;48.832;12.472;2022-09-06T14:12:35;5.65;;;3.53;;
14102;SDS011;7129;48.832;12.472;2022-09-06T14:17:41;3.60;;;2.45;;
14102;SDS011;7129;48.832;12.472;2022-09-06T14:22:43;5.28;;;2.95;;
14102;SDS011;7129;48.832;12.472;2022-09-06T14:27:49;4.72;;;3.03;;
14102;SDS011;7129;48.832;12.472;2022-09-06T14:32:52;3.65;;;2.35;;
14102;SDS011;7129;48.832;12.472;2022-09-06T14:37:54;4.75;;;3.63;;
14102;SDS011;7129;48.832;12.472;2022-09-06T14:43:07;3.45;;;2.83;;
14102;SDS011;7129;48.832;12.472;2022-09-06T14:48:11;5.78;;;2.78;;
14102;SDS011;7129;48.832;12.472;2022-09-06T14:53:19;2.85;;;2.33;;
14102;SDS011;7129;48.832;12.472;2022-09-06T15:09:39;6.72;;;2.33;;
14102;SDS011;7129;48.832;12.472;2022-09-06T15:14:42;2.97;;;2.47;;
14102;SDS011;7129;48.832;12.472;2022-09-06T15:19:44;3.78;;;2.20;;
14102;SDS011;7129;48.832;12.472;2022-09-06T15:24:47;5.07;;;2.33;;
14102;SDS011;7129;48.832;12.472;2022-09-06T15:29:50;4.35;;;2.80;;
14102;SDS011;7129;48.832;12.472;2022-09-06T15:34:52;4.25;;;2.35;;
14102;SDS011;7129;48.832;12.472;2022-09-06T15:39:57;4.78;;;2.67;;
14102;SDS011;7129;48.832;12.472;2022-09-06T15:44:59;5.07;;;2.85;;
14102;SDS011;7129;48.832;12.472;2022-09-06T15:50:01;4.80;;;3.45;;
14102;SDS011;7129;48.832;12.472;2022-09-06T15:55:05;6.10;;;4.82;;
14102;SDS011;7129;48.832;12.472;2022-09-06T16:00:25;3.60;;;3.30;;
14102;SDS011;7129;48.832;12.472;2022-09-06T16:10:56;6.15;;;4.47;;
14102;SDS011;7129;48.832;12.472;2022-09-06T16:27:54;2.47;;;2.20;;
14102;SDS011;7129;48.832;12.472;2022-09-06T16:32:56;3.67;;;2.30;;
14102;SDS011;7129;48.832;12.472;2022-09-06T16:38:07;5.15;;;2.55;;
14102;SDS011;7129;48.832;12.472;2022-09-06T16:43:29;8.38;;;2.78;;
14102;SDS011;7129;48.832;12.472;2022-09-06T16:48:34;5.68;;;2.78;;
14102;SDS011;7129;48.832;12.472;2022-09-06T16:53:37;8.50;;;3.03;;
14102;SDS011;7129;48.832;12.472;2022-09-06T16:58:41;8.13;;;2.65;;
14102;SDS011;7129;48.832;12.472;2022-09-06T17:03:46;4.78;;;2.58;;
14102;SDS011;7129;48.832;12.472;2022-09-06T17:08:49;2.25;;;2.05;;
14102;SDS011;7129;48.832;12.472;2022-09-06T17:19:17;4.28;;;2.38;;
14102;SDS011;7129;48.832;12.472;2022-09-06T17:24:19;6.93;;;3.00;;
14102;SDS011;7129;48.832;12.472;2022-09-06T17:29:26;4.03;;;2.50;;
14102;SDS011;7129;48.832;12.472;2022-09-06T17:34:28;4.15;;;2.60;;
14102;SDS011;7129;48.832;12.472;2022-09-06T17:39:30;4.57;;;2.65;;
14102;SDS011;7129;48.832;12.472;2022-09-06T17:44:34;3.95;;;2.35;;
14102;SDS011;7129;48.832;12.472;2022-09-06T17:49:36;4.80;;;2.50;;
14102;SDS011;7129;48.832;12.472;2022-09-06T17:54:38;6.38;;;2.55;;
14102;SDS011;7129;48.832;12.472;2022-09-06T17:59:43;3.85;;;2.85;;
14102;SDS011;7129;48.832;12.472;2022-09-06T18:04:47;4.72;;;2.83;;
14102;SDS011;7129;48.832;12.472;2022-09-06T18:09:49;6.35;;;3.33;;
14102;SDS011;7129;48.832;12.472;2022-09-06T18:14:52;2.60;;;2.40;;
14102;SDS011;7129;48.832;12.472;2022-09-06T18:19:58;9.75;;;3.13;;
14102;SDS011;7129;48.832;12.472;2022-09-06T18:25:02;13.35;;;3.80;;
14102;SDS011;7129;48.832;12.472;2022-09-06T18:30:05;13.13;;;4.18;;
14102;SDS011;7129;48.832;12.472;2022-09-06T18:35:08;9.57;;;3.65;;
14102;SDS011;7129;48.832;12.472;2022-09-06T18:40:10;10.73;;;3.95;;
14102;SDS011;7129;48.832;12.472;2022-09-06T18:45:13;7.80;;;3.35;;
14102;SDS011;7129;48.832;12.472;2022-09-06T18:50:15;3.35;;;2.75;;
14102;SDS011;7129;48.832;12.472;2022-09-06T18:55:17;6.68;;;3.10;;
14102;SDS011;7129;48.832;12.472;2022-09-06T19:00:20;6.40;;;3.05;;
14102;SDS011;7129;48.832;12.472;2022-09-06T19:05:24;5.13;;;3.05;;
14102;SDS011;7129;48.832;12.472;2022-09-06T19:10:26;4.95;;;2.90;;
14102;SDS011;7129;48.832;12.472;2022-09-06T19:15:29;6.53;;;3.17;;
14102;SDS011;7129;48.832;12.472;2022-09-06T19:20:31;5.80;;;3.08;;
14102;SDS011;7129;48.832;12.472;2022-09-06T19:25:45;6.07;;;2.97;;
14102;SDS011;7129;48.832;12.472;2022-09-06T19:30:48;6.15;;;3.05;;
14102;SDS011;7129;48.832;12.472;2022-09-06T19:35:50;7.10;;;3.60;;
14102;SDS011;7129;48.832;12.472;2022-09-06T19:40:59;5.10;;;2.90;;
14102;SDS011;7129;48.832;12.472;2022-09-06T19:46:03;5.43;;;2.65;;
14102;SDS011;7129;48.832;12.472;2022-09-06T19:51:06;5.68;;;2.78;;
14102;SDS011;7129;48.832;12.472;2022-09-06T19:56:09;4.95;;;3.20;;
14102;SDS011;7129;48.832;12.472;2022-09-06T20:01:13;5.22;;;3.10;;
14102;SDS011;7129;48.832;12.472;2022-09-06T20:06:16;6.25;;;3.38;;
14102;SDS011;7129;48.832;12.472;2022-09-06T20:11:22;4.80;;;3.13;;
14102;SDS011;7129;48.832;12.472;2022-09-06T20:16:27;5.10;;;3.15;;
14102;SDS011;7129;48.832;12.472;2022-09-06T20:21:30;5.40;;;3.30;;
14102;SDS011;7129;48.832;12.472;2022-09-06T20:26:32;3.88;;;3.10;;
14102;SDS011;7129;48.832;12.472;2022-09-06T20:31:35;5.70;;;3.25;;
14102;SDS011;7129;48.832;12.472;2022-09-06T20:36:37;5.70;;;3.45;;
14102;SDS011;7129;48.832;12.472;2022-09-06T20:41:41;5.18;;;3.20;;
14102;SDS011;7129;48.832;12.472;2022-09-06T20:46:45;6.20;;;3.20;;
14102;SDS011;7129;48.832;12.472;2022-09-06T20:51:47;3.70;;;3.25;;
14102;SDS011;7129;48.832;12.472;2022-09-06T20:56:51;3.33;;;2.95;;
14102;SDS011;7129;48.832;12.472;2022-09-06T21:01:55;6.53;;;3.17;;
14102;SDS011;7129;48.832;12.472;2022-09-06T21:06:57;4.50;;;3.05;;
14102;SDS011;7129;48.832;12.472;2022-09-06T21:11:59;5.70;;;3.55;;
14102;SDS011;7129;48.832;12.472;2022-09-06T21:17:05;5.03;;;3.78;;
14102;SDS011;7129;48.832;12.472;2022-09-06T21:22:06;5.13;;;3.60;;
14102;SDS011;7129;48.832;12.472;2022-09-06T21:27:08;6.63;;;3.65;;
14102;SDS011;7129;48.832;12.472;2022-09-06T21:32:12;4.10;;;3.20;;
14102;SDS011;7129;48.832;12.472;2022-09-06T21:37:15;6.10;;;3.25;;
14102;SDS011;7129;48.832;12.472;2022-09-06T21:42:16;5.75;;;3.72;;
14102;SDS011;7129;48.832;12.472;2022-09-06T21:47:24;7.93;;;3.85;;
14102;SDS011;7129;48.832;12.472;2022-09-06T21:52:26;3.92;;;3.33;;
14102;SDS011;7129;48.832;12.472;2022-09-06T21:57:31;3.30;;;3.00;;
14102;SDS011;7129;48.832;12.472;2022-09-06T22:02:34;6.05;;;3.75;;
14102;SDS011;7129;48.832;12.472;2022-09-06T22:07:36;5.85;;;3.72;;
14102;SDS011;7129;48.832;12.472;2022-09-06T22:12:39;5.38;;;3.72;;
14102;SDS011;7129;48.832;12.472;2022-09-06T22:17:43;8.13;;;4.45;;
14102;SDS011;7129;48.832;12.472;2022-09-06T22:22:45;8.05;;;3.97;;
14102;SDS011;7129;48.832;12.472;2022-09-06T22:27:47;5.43;;;3.88;;
14102;SDS011;7129;48.832;12.472;2022-09-06T22:32:50;6.88;;;3.95;;
14102;SDS011;7129;48.832;12.472;2022-09-06T22:37:52;4.05;;;3.60;;
14102;SDS011;7129;48.832;12.472;2022-09-06T22:42:54;5.68;;;4.00;;
14102;SDS011;7129;48.832;12.472;2022-09-06T22:47:57;5.00;;;4.05;;
14102;SDS011;7129;48.832;12.472;2022-09-06T22:52:59;6.45;;;4.07;;
14102;SDS011;7129;48.832;12.472;2022-09-06T22:58:01;7.55;;;4.30;;
14102;SDS011;7129;48.832;12.472;2022-09-06T23:03:04;5.03;;;4.53;;
14102;SDS011;7129;48.832;12.472;2022-09-06T23:08:06;6.28;;;4.20;;
14102;SDS011;7129;48.832;12.472;2022-09-06T23:13:08;7.55;;;4.75;;
14102;SDS011;7129;48.832;12.472;2022-09-06T23:18:12;9.98;;;4.45;;
14102;SDS011;7129;48.832;12.472;2022-09-06T23:23:14;6.00;;;4.75;;
14102;SDS011;7129;48.832;12.472;2022-09-06T23:28:16;5.18;;;4.68;;
14102;SDS011;7129;48.832;12.472;2022-09-06T23:33:20;7.03;;;5.00;;
14102;SDS011;7129;48.832;12.472;2022-09-06T23:38:22;4.95;;;4.55;;
14102;SDS011;7129;48.832;12.472;2022-09-06T23:43:24;6.75;;;5.40;;
14102;SDS011;7129;48.832;12.472;2022-09-06T23:48:28;8.20;;;4.70;;
14102;SDS011;7129;48.832;12.472;2022-09-06T23:53:30;6.43;;;5.10;;
14102;SDS011;7129;48.832;12.472;2022-09-06T23:58:32;7.03;;;4.90;;
